Aeroporto :
LOGIN :

Iscrizione | Disclaimer

   EN    FR    IT 

 










Sommario :    VFR   VFR Marginale   IFR   IFR Intensivo   IFR Molto Intensivo
Visibilità : 
Base nubi : 
>= 8 km
>= 3000ft
5 / 8 km
1000 / 3000 ft
1500m / 5 km
500 / 1000 ft
800 / 1500m
200 / 500 ft
< 800m
< 200 ft
Simboli :   Temporali  Nebbia  Neve Forte  Precipitazioni Forti  Vento > 20 kt
SIGMETs :   Varie  Temporali  Ghiacco  Turbolenza  Onda orograficha  Ceneri Vulcaniche







- Altitudine del aeroporto : 370 ft


EBBE - Beauvechain AB

ULTIMO METAR :
  • 190025Z AUTO 27005KT 9999 FEW013/// SCT100/// 07/04 Q1017 BLU

METARs OBSOLETI :
  • 182355Z AUTO 26007KT 9999 FEW017/// SCT027/// BKN036/// 08/04 Q1017 BLU
  • 182325Z AUTO 25008KT 9999 FEW016/// SCT029/// BKN033/// 08/03 Q1017 BLU
  • 182312Z AUTO 24009KT 9999 SCT016/// BKN170/// 08/03 Q1017 WHT
  • 182255Z AUTO 23010KT 9999 BKN170/// 08/03 Q1016 BLU
  • 182225Z AUTO 21011KT 9999 BKN180/// 09/03 Q1016 BLU
  • 182155Z AUTO 20008KT 9999 BKN170/// 09/03 Q1016 BLU

TAF TAF EBBE
Valido dal 18 a 19 ore il 19 a 07 ore UTC


181541Z 1819/1907 21005KT 9999 FEW250
BECMG 1820/1822 SCT025
TEMPO 1900/1904 5000 -RA BKN020
BECMG 1904/1906 8000 SCT010
Nessun NOTAM noto per questo aeroporto.



MetMap, La meteo Aeronautica in un colpo d'occhio ! - Copyright ORBIFLY Dicembre 2007 - Disclaimer

ORBIFLY MET'MAP TEAM :

Programmazione e sviluppo : Alexandra Zaïnal
Concezione e sviluppo : Baudouin d'Aumeries
Co-Programmazione e sviluppo : Marc-Olivier Méhu
Supporto tecnico e logistico : Manuel Goepfert
Aiuto per la traduzione : Arnaldo La Scala

Contatto : metmap@orbifly.com




FONTI E CREDITI :

   NOAA